Terminal Aerodrome Forecast
Issued by NWS Sioux Falls, SD

Home | Current Version | Previous Version | Text Only | Print | Product List | Glossary Off
Versions: 1 2 3 4 5 6 7 8 9 10 11 12 13 14 15 16

575
FTUS43 KFSD 201144
TAFHON
TAF
KHON 201144Z 2012/2112 17013KT P6SM SCT090 BKN110
      TEMPO 2012/2014 6SM -SHRA OVC060
     FM201400 22011KT P6SM OVC025
     FM201600 26013KT P6SM BKN050
     FM201700 30015G23KT P6SM BKN100
     FM202000 31016G24KT P6SM SCT200
     FM210000 29008KT P6SM SKC
     FM210300 23005KT P6SM FEW250
     FM210900 17008KT P6SM FEW250=

USA.gov is the U.S. government's official web portal to all federal, state and local government web resources and services.